createdAt,value
2023-02-01T00:00:02.366Z,1010.6
2023-02-01T00:01:02.225Z,1010.6
2023-02-01T00:02:02.360Z,1010.4
2023-02-01T00:03:02.362Z,1010.5
2023-02-01T00:04:02.474Z,1010.5
2023-02-01T00:05:02.234Z,1010.5
2023-02-01T00:06:02.298Z,1010.5
2023-02-01T00:07:02.135Z,1010.5
2023-02-01T00:08:02.121Z,1010.4
2023-02-01T00:09:01.956Z,1010.4
2023-02-01T00:10:01.999Z,1010.4
2023-02-01T00:11:01.808Z,1010.3
2023-02-01T00:12:01.854Z,1010.3
2023-02-01T00:13:02.797Z,1010.3
2023-02-01T00:14:02.636Z,1010.4
2023-02-01T00:15:02.664Z,1010.3
2023-02-01T00:16:02.638Z,1010.3
2023-02-01T00:17:01.852Z,1010.2
2023-02-01T00:18:01.925Z,1010.3
2023-02-01T00:19:01.752Z,1010.3
2023-02-01T00:20:02.782Z,1010.3
2023-02-01T00:21:02.636Z,1010.3
2023-02-01T00:22:02.674Z,1010.3
2023-02-01T00:23:02.483Z,1010.2
2023-02-01T00:24:02.661Z,1010.2
2023-02-01T00:25:02.451Z,1010.2
2023-02-01T00:26:02.343Z,1010.2
2023-02-01T00:27:02.275Z,1010.2
2023-02-01T00:28:02.128Z,1010.2
2023-02-01T00:29:02.222Z,1010.2
2023-02-01T00:30:02.063Z,1010.2
2023-02-01T00:31:02.315Z,1010.3
2023-02-01T00:32:02.765Z,1010.3
2023-02-01T00:33:02.525Z,1010.3
2023-02-01T00:34:02.503Z,1010.3
2023-02-01T00:35:02.443Z,1010.3
2023-02-01T00:36:02.263Z,1010.2
2023-02-01T00:37:02.385Z,1010.2
2023-02-01T00:38:02.296Z,1010.2
2023-02-01T00:39:02.060Z,1010.2
2023-02-01T00:40:02.119Z,1010.2
2023-02-01T00:41:01.964Z,1010.1
2023-02-01T00:42:01.888Z,1010.1
2023-02-01T00:43:01.725Z,1010.2
2023-02-01T00:44:02.781Z,1010.1
2023-02-01T00:45:02.631Z,1010.1
2023-02-01T00:46:02.680Z,1010.2
2023-02-01T00:47:01.817Z,1010.3
2023-02-01T00:48:01.856Z,1010.3
2023-02-01T00:49:01.732Z,1010.4
2023-02-01T00:50:02.791Z,1010.5
2023-02-01T00:51:02.598Z,1010.5
2023-02-01T00:52:02.554Z,1010.7
2023-02-01T00:53:02.414Z,1010.8
2023-02-01T00:54:02.486Z,1010.8
2023-02-01T00:55:02.352Z,1011
2023-02-01T00:56:02.155Z,1011.1
2023-02-01T00:57:02.215Z,1011.3
2023-02-01T00:58:02.115Z,1011.3
2023-02-01T00:59:02.032Z,1011.3
2023-02-01T01:00:02.010Z,1011.2
2023-02-01T01:01:02.238Z,1011.1
2023-02-01T01:02:02.167Z,1011.1
2023-02-01T01:03:02.047Z,1011.1
2023-02-01T01:04:02.127Z,1011.2
2023-02-01T01:05:01.888Z,1011.2
2023-02-01T01:06:01.767Z,1011.2
2023-02-01T01:07:01.833Z,1011.1
2023-02-01T01:08:02.727Z,1011.1
2023-02-01T01:09:02.644Z,1011
2023-02-01T01:10:02.743Z,1011
2023-02-01T01:11:02.591Z,1010.9
2023-02-01T01:12:02.635Z,1010.9
2023-02-01T01:13:02.474Z,1010.9
2023-02-01T01:14:02.561Z,1010.8
2023-02-01T01:15:02.460Z,1010.9
2023-02-01T01:16:02.422Z,1010.8
2023-02-01T01:17:02.685Z,1010.9
2023-02-01T01:18:02.724Z,1010.8
2023-02-01T01:19:02.569Z,1010.9
2023-02-01T01:20:02.640Z,1010.9
2023-02-01T01:21:02.475Z,1010.9
2023-02-01T01:22:02.519Z,1010.9
2023-02-01T01:23:02.388Z,1010.9
2023-02-01T01:24:02.300Z,1010.8
2023-02-01T01:25:02.322Z,1011
2023-02-01T01:26:02.298Z,1010.9
2023-02-01T01:27:01.991Z,1010.9
2023-02-01T01:28:01.971Z,1010.8
2023-02-01T01:29:01.840Z,1010.9
2023-02-01T01:30:01.888Z,1010.9
2023-02-01T01:31:03.253Z,1010.9
2023-02-01T01:32:01.812Z,1010.9
2023-02-01T01:33:01.959Z,1011
2023-02-01T01:34:01.747Z,1010.9
2023-02-01T01:35:02.733Z,1011
2023-02-01T01:36:02.576Z,1011.1
2023-02-01T01:37:02.665Z,1011.1
2023-02-01T01:38:02.484Z,1011
2023-02-01T01:39:02.514Z,1011.2
2023-02-01T01:40:02.414Z,1011.2
2023-02-01T01:41:02.310Z,1011.1
2023-02-01T01:42:02.343Z,1011
2023-02-01T01:43:02.084Z,1010.9
2023-02-01T01:44:02.078Z,1011.1
2023-02-01T01:45:01.843Z,1011.1
2023-02-01T01:46:01.918Z,1011.2
2023-02-01T01:47:02.719Z,1011
2023-02-01T01:48:02.531Z,1011
2023-02-01T01:49:02.481Z,1010.9
2023-02-01T01:50:02.428Z,1010.9
2023-02-01T01:51:02.228Z,1010.9
2023-02-01T01:52:02.260Z,1010.8
2023-02-01T01:53:02.096Z,1010.9
2023-02-01T01:54:02.095Z,1010.9
2023-02-01T01:55:01.893Z,1011.1
2023-02-01T01:56:01.934Z,1011
2023-02-01T01:57:01.795Z,1011
2023-02-01T01:58:01.851Z,1011
2023-02-01T01:59:01.713Z,1011.1
2023-02-01T02:00:02.743Z,1011
2023-02-01T02:01:02.715Z,1011.1
2023-02-01T02:02:01.885Z,1011.1
2023-02-01T02:03:02.947Z,1011.1
2023-02-01T02:04:02.698Z,1011.1
2023-02-01T02:05:02.743Z,1011.2
2023-02-01T02:06:02.619Z,1011.1
2023-02-01T02:07:02.603Z,1011.1
2023-02-01T02:08:02.429Z,1011.1
2023-02-01T02:09:02.443Z,1011
2023-02-01T02:10:02.413Z,1011.1
2023-02-01T02:11:02.396Z,1011.2
2023-02-01T02:12:02.267Z,1011.2
2023-02-01T02:13:02.086Z,1011
2023-02-01T02:14:02.069Z,1011.1
2023-02-01T02:15:01.885Z,1011.1
2023-02-01T02:16:01.995Z,1011.1
2023-02-01T02:17:02.680Z,1011.2
2023-02-01T02:18:02.480Z,1011.2
2023-02-01T02:19:02.509Z,1011.2
2023-02-01T02:20:02.418Z,1011.2
2023-02-01T02:21:02.206Z,1011.2
2023-02-01T02:22:02.232Z,1011.2
2023-02-01T02:23:02.275Z,1011.2
2023-02-01T02:24:01.986Z,1011.2
2023-02-01T02:25:02.050Z,1011.2
2023-02-01T02:26:01.906Z,1011.2
2023-02-01T02:27:01.807Z,1011.2
2023-02-01T02:28:01.744Z,1011.3
2023-02-01T02:29:02.838Z,1011.2
2023-02-01T02:30:02.609Z,1011.2
2023-02-01T02:31:02.755Z,1011.2
2023-02-01T02:32:02.407Z,1011.2
2023-02-01T02:33:02.481Z,1011.2
2023-02-01T02:34:02.283Z,1011.2
2023-02-01T02:35:02.247Z,1011.2
2023-02-01T02:36:02.207Z,1011.2
2023-02-01T02:37:02.077Z,1011.2
2023-02-01T02:38:02.105Z,1011.2
2023-02-01T02:39:01.903Z,1011.2
2023-02-01T02:40:01.887Z,1011.2
2023-02-01T02:41:01.763Z,1011.2
2023-02-01T02:42:02.793Z,1011.2
2023-02-01T02:43:02.591Z,1011.3
2023-02-01T02:44:02.644Z,1011.2
2023-02-01T02:45:02.512Z,1011.2
2023-02-01T02:46:02.699Z,1011.2
2023-02-01T02:47:02.495Z,1011.2
2023-02-01T02:48:02.292Z,1011.3
2023-02-01T02:49:02.340Z,1011.2
2023-02-01T02:50:02.352Z,1011.3
2023-02-01T02:51:02.049Z,1011.3
2023-02-01T02:52:02.216Z,1011.3
2023-02-01T02:53:01.971Z,1011.3
2023-02-01T02:54:02.002Z,1011.3
2023-02-01T02:55:01.747Z,1011.3
2023-02-01T02:56:01.806Z,1011.3
2023-02-01T02:57:02.806Z,1011.3
2023-02-01T02:58:02.619Z,1011.4
2023-02-01T02:59:02.606Z,1011.3
2023-02-01T03:00:02.435Z,1011.3
2023-02-01T03:01:02.708Z,1011.4
2023-02-01T03:02:02.513Z,1011.3
2023-02-01T03:03:02.410Z,1011.3
2023-02-01T03:04:02.399Z,1011.3
2023-02-01T03:05:02.360Z,1011.3
2023-02-01T03:06:02.224Z,1011.2
2023-02-01T03:07:02.198Z,1011.3
2023-02-01T03:08:02.062Z,1011.3
2023-02-01T03:09:02.103Z,1011.3
2023-02-01T03:10:01.945Z,1011.3
2023-02-01T03:11:01.895Z,1011.3
2023-02-01T03:12:01.713Z,1011.2
2023-02-01T03:13:02.755Z,1011.2
2023-02-01T03:14:02.660Z,1011.3
2023-02-01T03:15:02.613Z,1011.3
2023-02-01T03:16:02.401Z,1011.3
2023-02-01T03:17:02.588Z,1011.3
2023-02-01T03:18:02.644Z,1011.4
2023-02-01T03:19:02.421Z,1011.3
2023-02-01T03:20:02.590Z,1011.3
2023-02-01T03:21:02.460Z,1011.3
2023-02-01T03:22:02.329Z,1011.2
2023-02-01T03:23:02.333Z,1011.3
2023-02-01T03:24:02.327Z,1011.3
2023-02-01T03:25:02.131Z,1011.3
2023-02-01T03:26:02.168Z,1011.3
2023-02-01T03:27:01.988Z,1011.4
2023-02-01T03:28:01.895Z,1011.4
2023-02-01T03:29:01.741Z,1011.5
2023-02-01T03:30:01.905Z,1011.4
2023-02-01T03:31:03.177Z,1011.5
2023-02-01T03:32:02.610Z,1011.5
2023-02-01T03:33:02.685Z,1011.5
2023-02-01T03:34:02.515Z,1011.6
2023-02-01T03:35:02.377Z,1011.5
2023-02-01T03:36:02.442Z,1011.4
2023-02-01T03:37:02.439Z,1011.4
2023-02-01T03:38:02.226Z,1011.4
2023-02-01T03:39:02.231Z,1011.3
2023-02-01T03:40:02.030Z,1011.2
2023-02-01T03:41:02.044Z,1011.3
2023-02-01T03:42:01.836Z,1011.3
2023-02-01T03:43:01.835Z,1011.3
2023-02-01T03:44:02.754Z,1011.3
2023-02-01T03:45:02.656Z,1011.3
2023-02-01T03:46:03.200Z,1011.3
2023-02-01T03:47:02.596Z,1011.3
2023-02-01T03:48:02.601Z,1011.3
2023-02-01T03:49:02.504Z,1011.3
2023-02-01T03:50:02.529Z,1011.4
2023-02-01T03:51:02.444Z,1011.4
2023-02-01T03:52:02.546Z,1011.3
2023-02-01T03:53:02.378Z,1011.4
2023-02-01T03:54:02.421Z,1011.4
2023-02-01T03:55:02.293Z,1011.3
2023-02-01T03:56:02.220Z,1011.3
2023-02-01T03:57:02.015Z,1011.3
2023-02-01T03:58:02.057Z,1011.3
2023-02-01T03:59:01.862Z,1011.3
2023-02-01T04:00:01.899Z,1011.2
2023-02-01T04:01:01.840Z,1011.3
2023-02-01T04:02:01.881Z,1011.4
2023-02-01T04:03:02.729Z,1011.3
2023-02-01T04:04:02.641Z,1011.2
2023-02-01T04:05:02.648Z,1011.3
2023-02-01T04:06:02.372Z,1011.2
2023-02-01T04:07:02.419Z,1011.2
2023-02-01T04:08:02.373Z,1011.2
2023-02-01T04:09:02.190Z,1011.2
2023-02-01T04:10:02.152Z,1011.2
2023-02-01T04:11:01.957Z,1011.3
2023-02-01T04:12:01.900Z,1011.3
2023-02-01T04:13:01.755Z,1011.2
2023-02-01T04:14:02.716Z,1011.3
2023-02-01T04:15:02.537Z,1011.3
2023-02-01T04:16:02.607Z,1011.3
2023-02-01T04:17:02.166Z,1011.3
2023-02-01T04:18:02.126Z,1011.3
2023-02-01T04:19:01.964Z,1011.3
2023-02-01T04:20:01.975Z,1011.3
2023-02-01T04:21:01.735Z,1011.4
2023-02-01T04:22:02.799Z,1011.3
2023-02-01T04:23:02.591Z,1011.3
2023-02-01T04:24:02.604Z,1011.3
2023-02-01T04:25:02.459Z,1011.3
2023-02-01T04:26:02.485Z,1011.3
2023-02-01T04:27:02.426Z,1011.3
2023-02-01T04:28:02.310Z,1011.3
2023-02-01T04:29:02.228Z,1011.3
2023-02-01T04:30:02.365Z,1011.3
2023-02-01T04:31:02.408Z,1011.3
2023-02-01T04:32:02.025Z,1011.3
2023-02-01T04:33:02.097Z,1011.3
2023-02-01T04:34:01.859Z,1011.3
2023-02-01T04:35:01.877Z,1011.3
2023-02-01T04:36:02.715Z,1011.4
2023-02-01T04:37:02.606Z,1011.3
2023-02-01T04:38:02.616Z,1011.3
2023-02-01T04:39:02.452Z,1011.3
2023-02-01T04:40:02.590Z,1011.3
2023-02-01T04:41:02.308Z,1011.3
2023-02-01T04:42:02.286Z,1011.3
2023-02-01T04:43:02.132Z,1011.3
2023-02-01T04:44:02.123Z,1011.2
2023-02-01T04:45:01.943Z,1011.2
2023-02-01T04:46:02.044Z,1011.2
2023-02-01T04:47:02.807Z,1011.3
2023-02-01T04:48:02.604Z,1011.3
2023-02-01T04:49:02.567Z,1011.2
2023-02-01T04:50:02.537Z,1011.2
2023-02-01T04:51:02.568Z,1011.3
2023-02-01T04:52:02.487Z,1011.2
2023-02-01T04:53:02.351Z,1011.2
2023-02-01T04:54:02.420Z,1011.2
2023-02-01T04:55:02.475Z,1011.2
2023-02-01T04:56:02.206Z,1011.1
2023-02-01T04:57:02.162Z,1011.2
2023-02-01T04:58:02.069Z,1011.2
2023-02-01T04:59:02.066Z,1011.2
2023-02-01T05:00:01.950Z,1011.2
2023-02-01T05:01:02.004Z,1011.2
2023-02-01T05:02:01.832Z,1011.2
2023-02-01T05:03:02.037Z,1011.2
2023-02-01T05:04:01.793Z,1011.2
2023-02-01T05:05:02.073Z,1011.2
2023-02-01T05:06:01.839Z,1011.2
2023-02-01T05:07:01.829Z,1011.2
2023-02-01T05:08:02.715Z,1011.1
2023-02-01T05:09:02.587Z,1011.2
2023-02-01T05:10:02.664Z,1011.2
2023-02-01T05:11:02.534Z,1011.1
2023-02-01T05:12:02.543Z,1011.2
2023-02-01T05:13:02.431Z,1011.2
2023-02-01T05:14:03.119Z,1011.1
2023-02-01T05:15:01.967Z,1011.2
2023-02-01T05:16:01.891Z,1011.1
2023-02-01T05:17:01.779Z,1011.1
2023-02-01T05:18:03.172Z,1011.1
2023-02-01T05:19:01.853Z,1011.2
2023-02-01T05:20:01.937Z,1011.1
2023-02-01T05:21:01.763Z,1011.1
2023-02-01T05:22:02.775Z,1011.2
2023-02-01T05:23:02.587Z,1011.1
2023-02-01T05:24:02.614Z,1011.1
2023-02-01T05:25:02.528Z,1011.1
2023-02-01T05:26:02.544Z,1011.2
2023-02-01T05:27:02.446Z,1011.1
2023-02-01T05:28:02.320Z,1011.1
2023-02-01T05:29:02.337Z,1011.1
2023-02-01T05:30:02.537Z,1011
2023-02-01T05:31:02.540Z,1011.1
2023-02-01T05:32:23.389Z,1011
2023-02-01T05:33:02.137Z,1011.1
2023-02-01T05:34:02.127Z,1011
2023-02-01T05:35:01.954Z,1011
2023-02-01T05:36:01.874Z,1011
2023-02-01T05:37:01.708Z,1011
2023-02-01T05:38:02.782Z,1011
2023-02-01T05:39:02.681Z,1011
2023-02-01T05:40:02.662Z,1010.9
2023-02-01T05:41:02.573Z,1011
2023-02-01T05:42:02.551Z,1011.1
2023-02-01T05:43:02.383Z,1011.1
2023-02-01T05:44:02.426Z,1011
2023-02-01T05:45:02.418Z,1011
2023-02-01T05:46:02.228Z,1010.9
2023-02-01T05:47:02.039Z,1010.9
2023-02-01T05:48:02.117Z,1011
2023-02-01T05:49:01.927Z,1010.9
2023-02-01T05:50:01.931Z,1010.9
2023-02-01T05:51:02.767Z,1010.9
2023-02-01T05:52:02.701Z,1010.9
2023-02-01T05:53:02.688Z,1010.9
2023-02-01T05:54:02.586Z,1010.9
2023-02-01T05:55:02.586Z,1011
2023-02-01T05:56:02.394Z,1011
2023-02-01T05:57:02.353Z,1010.9
2023-02-01T05:58:02.380Z,1010.9
2023-02-01T06:00:02.138Z,1010.9
2023-02-01T06:01:01.881Z,1011
2023-02-01T06:02:01.772Z,1010.9
2023-02-01T06:03:02.020Z,1010.9
2023-02-01T06:04:01.968Z,1011
2023-02-01T06:05:01.800Z,1011
2023-02-01T06:06:02.761Z,1010.9
2023-02-01T06:07:02.560Z,1010.9
2023-02-01T06:08:02.556Z,1011
2023-02-01T06:09:02.496Z,1010.9
2023-02-01T06:10:02.455Z,1010.9
2023-02-01T06:11:02.567Z,1010.9
2023-02-01T06:12:02.278Z,1011
2023-02-01T06:13:02.356Z,1011.1
2023-02-01T06:14:02.305Z,1011
2023-02-01T06:15:02.130Z,1011
2023-02-01T06:16:02.348Z,1011
2023-02-01T06:17:02.007Z,1011.1
2023-02-01T06:18:01.953Z,1011
2023-02-01T06:19:01.868Z,1010.9
2023-02-01T06:20:01.831Z,1011
2023-02-01T06:21:01.782Z,1011
2023-02-01T06:22:02.702Z,1011
2023-02-01T06:23:02.672Z,1011
2023-02-01T06:24:02.566Z,1011
2023-02-01T06:25:02.549Z,1011
2023-02-01T06:26:02.515Z,1011
2023-02-01T06:27:02.487Z,1011
2023-02-01T06:28:02.384Z,1011
2023-02-01T06:29:02.310Z,1011
2023-02-01T06:30:02.335Z,1011.1
2023-02-01T06:31:02.624Z,1011.1
2023-02-01T06:32:02.303Z,1011
2023-02-01T06:33:02.088Z,1011.1
2023-02-01T06:34:01.986Z,1011
2023-02-01T06:35:02.047Z,1011.1
2023-02-01T06:36:01.779Z,1011.1
2023-02-01T06:37:01.758Z,1011.1
2023-02-01T06:38:02.690Z,1011
2023-02-01T06:39:02.567Z,1011
2023-02-01T06:40:02.709Z,1011
2023-02-01T06:41:02.440Z,1011
2023-02-01T06:42:02.413Z,1011
2023-02-01T06:43:02.366Z,1011
2023-02-01T06:44:02.253Z,1010.9
2023-02-01T06:45:02.150Z,1011
2023-02-01T06:46:02.104Z,1011
2023-02-01T06:47:02.182Z,1010.9
2023-02-01T06:48:01.961Z,1010.9
2023-02-01T06:49:01.790Z,1010.9
2023-02-01T06:50:01.750Z,1010.9
2023-02-01T06:51:02.653Z,1010.9
2023-02-01T06:52:02.575Z,1010.9
2023-02-01T06:53:02.485Z,1011
2023-02-01T06:54:02.637Z,1010.9
2023-02-01T06:55:02.392Z,1010.9
2023-02-01T06:56:02.267Z,1010.9
2023-02-01T06:57:02.148Z,1010.9
2023-02-01T06:58:02.072Z,1011
2023-02-01T06:59:02.011Z,1010.9
2023-02-01T07:00:02.702Z,1010.9
2023-02-01T07:01:02.695Z,1010.9
2023-02-01T07:02:02.840Z,1010.9
2023-02-01T07:03:02.581Z,1010.9
2023-02-01T07:04:02.509Z,1010.9
2023-02-01T07:05:02.503Z,1010.9
2023-02-01T07:06:02.415Z,1010.9
2023-02-01T07:07:02.334Z,1010.9
2023-02-01T07:08:02.213Z,1010.8
2023-02-01T07:09:02.134Z,1010.8
2023-02-01T07:10:02.084Z,1011
2023-02-01T07:11:01.940Z,1010.8
2023-02-01T07:12:01.833Z,1010.9
2023-02-01T07:13:01.763Z,1010.9
2023-02-01T07:14:01.737Z,1010.9
2023-02-01T07:15:02.873Z,1010.9
2023-02-01T07:16:02.734Z,1010.8
2023-02-01T07:17:02.482Z,1010.9
2023-02-01T07:18:02.433Z,1010.8
2023-02-01T07:19:02.333Z,1010.9
2023-02-01T07:20:02.235Z,1010.9
2023-02-01T07:21:02.231Z,1010.9
2023-02-01T07:22:02.137Z,1011
2023-02-01T07:23:02.044Z,1010.9
2023-02-01T07:24:01.981Z,1010.9
2023-02-01T07:25:01.907Z,1010.9
2023-02-01T07:26:01.781Z,1010.9
2023-02-01T07:27:01.721Z,1010.9
2023-02-01T07:28:02.631Z,1010.9
2023-02-01T07:29:02.697Z,1010.9
2023-02-01T07:30:02.567Z,1011
2023-02-01T07:31:02.593Z,1010.9
2023-02-01T07:32:02.374Z,1010.9
2023-02-01T07:33:02.531Z,1010.9
2023-02-01T07:34:02.279Z,1010.9
2023-02-01T07:35:02.262Z,1010.9
2023-02-01T07:36:02.216Z,1010.9
2023-02-01T07:37:01.966Z,1011
2023-02-01T07:38:01.918Z,1010.9
2023-02-01T07:39:01.776Z,1010.9
2023-02-01T07:40:01.776Z,1010.9
2023-02-01T07:41:02.659Z,1010.9
2023-02-01T07:42:02.621Z,1011
2023-02-01T07:43:02.555Z,1010.9
2023-02-01T07:44:02.565Z,1011
2023-02-01T07:45:21.900Z,1011
2023-02-01T07:46:02.913Z,1011
2023-02-01T07:47:02.297Z,1011
2023-02-01T07:48:02.065Z,1011
2023-02-01T07:49:01.961Z,1011.1
2023-02-01T07:50:01.968Z,1011
2023-02-01T07:51:01.765Z,1011
2023-02-01T07:52:01.726Z,1011
2023-02-01T07:53:02.690Z,1011
2023-02-01T07:54:02.657Z,1011
2023-02-01T07:55:02.546Z,1010.9
2023-02-01T07:56:02.529Z,1011
2023-02-01T07:57:02.422Z,1011.1
2023-02-01T07:58:02.346Z,1011
2023-02-01T07:59:02.213Z,1011.1
2023-02-01T08:00:02.160Z,1011
2023-02-01T08:01:02.443Z,1011
2023-02-01T08:02:02.216Z,1011
2023-02-01T08:03:02.106Z,1011
2023-02-01T08:04:01.997Z,1011
2023-02-01T08:05:01.891Z,1011.1
2023-02-01T08:06:01.955Z,1011.1
2023-02-01T08:07:01.801Z,1011.1
2023-02-01T08:08:01.743Z,1011.1
2023-02-01T08:09:02.674Z,1011.1
2023-02-01T08:10:02.630Z,1011.1
2023-02-01T08:11:02.545Z,1011
2023-02-01T08:12:02.461Z,1011.1
2023-02-01T08:13:02.432Z,1011.1
2023-02-01T08:14:02.376Z,1011.1
2023-02-01T08:15:02.281Z,1011
2023-02-01T08:16:02.112Z,1011
2023-02-01T08:17:02.205Z,1011.1
2023-02-01T08:18:02.041Z,1011
2023-02-01T08:19:01.996Z,1011
2023-02-01T08:20:01.921Z,1011.1
2023-02-01T08:21:01.748Z,1011
2023-02-01T08:22:01.739Z,1011
2023-02-01T08:23:02.661Z,1011
2023-02-01T08:24:02.589Z,1011
2023-02-01T08:25:02.780Z,1010.9
2023-02-01T08:26:02.647Z,1011
2023-02-01T08:27:02.633Z,1011
2023-02-01T08:28:02.479Z,1011
2023-02-01T08:29:02.445Z,1010.9
2023-02-01T08:30:02.435Z,1010.9
2023-02-01T08:31:02.393Z,1010.9
2023-02-01T08:32:02.347Z,1010.9
2023-02-01T08:33:02.115Z,1010.9
2023-02-01T08:34:02.011Z,1010.9
2023-02-01T08:35:02.010Z,1010.9
2023-02-01T08:36:01.833Z,1010.9
2023-02-01T08:37:01.722Z,1010.9
2023-02-01T08:38:02.742Z,1010.9
2023-02-01T08:39:02.656Z,1010.9
2023-02-01T08:40:02.545Z,1010.9
2023-02-01T08:41:02.495Z,1010.9
2023-02-01T08:42:02.425Z,1010.9
2023-02-01T08:43:02.291Z,1010.8
2023-02-01T08:44:02.219Z,1010.8
2023-02-01T08:45:02.274Z,1010.9
2023-02-01T08:46:02.334Z,1010.9
2023-02-01T08:47:01.917Z,1010.9
2023-02-01T08:48:01.788Z,1010.9
2023-02-01T08:49:01.732Z,1010.8
2023-02-01T08:50:02.693Z,1011
2023-02-01T08:51:02.663Z,1010.8
2023-02-01T08:52:16.548Z,1010.9
2023-02-01T08:53:02.218Z,1010.9
2023-02-01T08:54:02.149Z,1010.9
2023-02-01T08:55:02.108Z,1010.9
2023-02-01T08:56:02.036Z,1010.9
2023-02-01T08:57:02.091Z,1010.9
2023-02-01T08:58:01.967Z,1010.9
2023-02-01T08:59:01.768Z,1010.9
2023-02-01T09:00:02.717Z,1010.9
2023-02-01T09:01:02.651Z,1010.9
2023-02-01T09:02:02.582Z,1010.9
2023-02-01T09:03:02.505Z,1010.9
2023-02-01T09:04:02.735Z,1011
2023-02-01T09:05:02.522Z,1010.9
2023-02-01T09:06:02.500Z,1010.9
2023-02-01T09:07:02.404Z,1011
2023-02-01T09:08:02.315Z,1010.9
2023-02-01T09:09:02.239Z,1011
2023-02-01T09:10:02.224Z,1010.9
2023-02-01T09:11:04.039Z,1011
2023-02-01T09:12:01.742Z,1011
2023-02-01T09:13:02.655Z,1011
2023-02-01T09:14:02.668Z,1010.9
2023-02-01T09:15:02.702Z,1011
2023-02-01T09:16:02.634Z,1010.9
2023-02-01T09:17:02.490Z,1010.9
2023-02-01T09:18:02.496Z,1011
2023-02-01T09:19:27.488Z,1010.9
2023-02-01T09:20:02.304Z,1010.9
2023-02-01T09:21:02.248Z,1010.9
2023-02-01T09:22:02.181Z,1010.9
2023-02-01T09:23:02.153Z,1010.9
2023-02-01T09:24:02.034Z,1010.9
2023-02-01T09:25:02.183Z,1011
2023-02-01T09:26:01.962Z,1010.8
2023-02-01T09:27:02.024Z,1010.9
2023-02-01T09:28:01.779Z,1011
2023-02-01T09:29:01.870Z,1010.9
2023-02-01T09:30:02.717Z,1010.9
2023-02-01T09:31:03.145Z,1010.9
2023-02-01T09:32:05.564Z,1010.9
2023-02-01T09:33:02.291Z,1011
2023-02-01T09:34:02.299Z,1010.9
2023-02-01T09:35:02.265Z,1010.8
2023-02-01T09:36:02.061Z,1010.9
2023-02-01T09:37:02.025Z,1010.8
2023-02-01T09:38:01.877Z,1010.7
2023-02-01T09:39:01.812Z,1010.8
2023-02-01T09:40:01.755Z,1010.7
2023-02-01T09:41:02.658Z,1010.7
2023-02-01T09:42:02.625Z,1010.7
2023-02-01T09:43:02.586Z,1010.8
2023-02-01T09:44:02.430Z,1010.6
2023-02-01T09:45:02.419Z,1010.7
2023-02-01T09:46:02.478Z,1010.7
2023-02-01T09:47:02.340Z,1010.7
2023-02-01T09:48:02.205Z,1010.7
2023-02-01T09:49:02.137Z,1010.7
2023-02-01T09:50:02.268Z,1010.7
2023-02-01T09:51:02.075Z,1010.7
2023-02-01T09:52:01.901Z,1010.7
2023-02-01T09:53:01.914Z,1010.7
2023-02-01T09:54:01.788Z,1010.7
2023-02-01T09:55:01.730Z,1010.7
2023-02-01T09:56:02.650Z,1010.6
2023-02-01T09:57:02.580Z,1010.7
2023-02-01T09:58:02.556Z,1010.6
2023-02-01T09:59:02.508Z,1010.6
2023-02-01T10:00:02.398Z,1010.6
2023-02-01T10:01:02.382Z,1010.6
2023-02-01T10:02:02.212Z,1010.6
2023-02-01T10:03:02.154Z,1010.6
2023-02-01T10:04:02.042Z,1010.5
2023-02-01T10:05:02.002Z,1010.5
2023-02-01T10:06:01.946Z,1010.6
2023-02-01T10:07:01.815Z,1010.6
2023-02-01T10:08:01.765Z,1010.5
2023-02-01T10:09:01.747Z,1010.6
2023-02-01T10:10:02.856Z,1010.5
2023-02-01T10:11:02.637Z,1010.6
2023-02-01T10:12:02.505Z,1010.5
2023-02-01T10:13:02.433Z,1010.5
2023-02-01T10:14:02.421Z,1010.5
2023-02-01T10:15:02.371Z,1010.5
2023-02-01T10:16:02.615Z,1010.5
2023-02-01T10:17:02.507Z,1010.5
2023-02-01T10:18:02.327Z,1010.5
2023-02-01T10:19:02.252Z,1010.5
2023-02-01T10:20:02.147Z,1010.5
2023-02-01T10:21:02.052Z,1010.5
2023-02-01T10:22:02.015Z,1010.5
2023-02-01T10:23:35.018Z,1010.5
2023-02-01T10:24:18.442Z,1010.4
2023-02-01T10:25:02.229Z,1010.5
2023-02-01T10:26:02.259Z,1010.6
2023-02-01T10:27:02.196Z,1010.5
2023-02-01T10:28:02.062Z,1010.5
2023-02-01T10:29:01.984Z,1010.4
2023-02-01T10:30:02.270Z,1010.5
2023-02-01T10:31:02.501Z,1010.5
2023-02-01T10:32:02.224Z,1010.5
2023-02-01T10:33:02.075Z,1010.5
2023-02-01T10:34:02.214Z,1010.4
2023-02-01T10:35:02.066Z,1010.5
2023-02-01T10:36:01.811Z,1010.4
2023-02-01T10:37:01.748Z,1010.4
2023-02-01T10:38:02.681Z,1010.4
2023-02-01T10:39:02.645Z,1010.4
2023-02-01T10:40:02.621Z,1010.5
2023-02-01T10:41:02.497Z,1010.5
2023-02-01T10:42:02.492Z,1010.5
2023-02-01T10:43:02.378Z,1010.4
2023-02-01T10:44:02.288Z,1010.5
2023-02-01T10:45:02.152Z,1010.5
2023-02-01T10:46:02.300Z,1010.4
2023-02-01T10:47:02.046Z,1010.5
2023-02-01T10:48:01.882Z,1010.4
2023-02-01T10:49:01.828Z,1010.4
2023-02-01T10:50:01.763Z,1010.4
2023-02-01T10:51:01.709Z,1010.3
2023-02-01T10:52:02.605Z,1010.3
2023-02-01T10:53:02.476Z,1010.4
2023-02-01T10:54:02.480Z,1010.4
2023-02-01T10:55:02.458Z,1010.4
2023-02-01T10:56:02.371Z,1010.4
2023-02-01T10:57:02.313Z,1010.5
2023-02-01T10:58:02.265Z,1010.4
2023-02-01T10:59:02.198Z,1010.3
2023-02-01T11:00:02.078Z,1010.4
2023-02-01T11:01:01.931Z,1010.3
2023-02-01T11:02:02.827Z,1010.3
2023-02-01T11:03:02.839Z,1010.3
2023-02-01T11:04:02.645Z,1010.3
2023-02-01T11:05:02.565Z,1010.3
2023-02-01T11:06:02.524Z,1010.3
2023-02-01T11:07:02.435Z,1010.2
2023-02-01T11:08:02.312Z,1010.2
2023-02-01T11:09:02.246Z,1010.2
2023-02-01T11:10:02.261Z,1010.2
2023-02-01T11:11:02.305Z,1010.3
2023-02-01T11:12:02.019Z,1010.2
2023-02-01T11:13:01.936Z,1010.2
2023-02-01T11:14:01.848Z,1010.2
2023-02-01T11:15:01.832Z,1010.2
2023-02-01T11:16:02.040Z,1010.1
2023-02-01T11:17:02.546Z,1010.2
2023-02-01T11:18:02.529Z,1010.2
2023-02-01T11:19:02.495Z,1010.2
2023-02-01T11:20:02.469Z,1010.2
2023-02-01T11:21:02.367Z,1010.1
2023-02-01T11:22:02.410Z,1010.1
2023-02-01T11:23:02.307Z,1010.1
2023-02-01T11:24:02.178Z,1010.1
2023-02-01T11:25:02.125Z,1010
2023-02-01T11:26:02.148Z,1010
2023-02-01T11:27:02.129Z,1010
2023-02-01T11:28:01.943Z,1010
2023-02-01T11:29:01.856Z,1010
2023-02-01T11:30:01.901Z,1010
2023-02-01T11:31:02.161Z,1009.9
2023-02-01T11:32:01.822Z,1009.9
2023-02-01T11:33:01.785Z,1009.9
2023-02-01T11:34:01.717Z,1010
2023-02-01T11:35:02.689Z,1009.9
2023-02-01T11:36:02.653Z,1009.8
2023-02-01T11:37:02.499Z,1009.8
2023-02-01T11:38:02.494Z,1009.9
2023-02-01T11:39:05.065Z,1009.8
2023-02-01T11:40:01.970Z,1009.7
2023-02-01T11:41:01.771Z,1009.8
2023-02-01T11:42:01.770Z,1009.8
2023-02-01T11:43:02.803Z,1009.7
2023-02-01T11:44:02.622Z,1009.8
2023-02-01T11:45:06.140Z,1009.8
2023-02-01T11:46:01.946Z,1009.7
2023-02-01T11:47:02.376Z,1009.9
2023-02-01T11:48:02.288Z,1009.8
2023-02-01T11:49:02.264Z,1009.8
2023-02-01T11:50:02.263Z,1009.8
2023-02-01T11:51:02.833Z,1009.7
2023-02-01T11:52:02.286Z,1009.7
2023-02-01T11:53:02.508Z,1009.7
2023-02-01T11:54:02.346Z,1009.7
2023-02-01T11:55:02.262Z,1009.7
2023-02-01T11:56:02.145Z,1009.7
2023-02-01T11:57:02.036Z,1009.7
2023-02-01T11:58:02.054Z,1009.6
2023-02-01T11:59:02.037Z,1009.7
2023-02-01T12:00:01.990Z,1009.7
2023-02-01T12:01:01.827Z,1009.6
2023-02-01T12:02:02.719Z,1009.6
2023-02-01T12:03:02.645Z,1009.6
2023-02-01T12:04:02.390Z,1009.6
2023-02-01T12:05:02.363Z,1009.5
2023-02-01T12:06:02.315Z,1009.5
2023-02-01T12:07:02.273Z,1009.5
2023-02-01T12:08:02.217Z,1009.4
2023-02-01T12:09:02.136Z,1009.5
2023-02-01T12:10:02.171Z,1009.5
2023-02-01T12:11:02.075Z,1009.5
2023-02-01T12:12:01.965Z,1009.5
2023-02-01T12:13:01.948Z,1009.4
2023-02-01T12:14:01.909Z,1009.4
2023-02-01T12:15:01.831Z,1009.5
2023-02-01T12:16:01.893Z,1009.4
2023-02-01T12:17:01.754Z,1009.3
2023-02-01T12:18:02.685Z,1009.4
2023-02-01T12:19:02.650Z,1009.4
2023-02-01T12:20:02.589Z,1009.4
2023-02-01T12:21:02.439Z,1009.4
2023-02-01T12:22:02.471Z,1009.3
2023-02-01T12:23:02.378Z,1009.3
2023-02-01T12:24:02.300Z,1009.3
2023-02-01T12:25:02.198Z,1009.5
2023-02-01T12:26:02.147Z,1009.3
2023-02-01T12:27:02.105Z,1009.4
2023-02-01T12:28:02.022Z,1009.3
2023-02-01T12:29:01.959Z,1009.4
2023-02-01T12:30:01.885Z,1009.4
2023-02-01T12:31:02.023Z,1009.5
2023-02-01T12:32:02.996Z,1009.4
2023-02-01T12:33:01.741Z,1009.4
2023-02-01T12:34:02.687Z,1009.4
2023-02-01T12:35:02.638Z,1009.4
2023-02-01T12:36:02.552Z,1009.5